Time;durP1;ratioP1;P1;durP2;ratioP2;P2;SDS_P1;SDS_P2;PMS_P1;PMS_P2;Temp;Humidity;BMP_temperature;BMP_pressure;BME280_temperature;BME280_humidity;BME280_pressure;Samples;Min_cycle;Max_cycle;Signal;HPM_P1;HPM_P2
2021/05/06 00:30:49;;;;;;;2.72;1.20;;;9.10;66.20;;;;;;5048541;28;20545;-74
2021/05/06 00:33:14;;;;;;;3.08;1.10;;;9.00;67.50;;;;;;5046519;28;20076;-74
2021/05/06 00:35:41;;;;;;;3.17;1.52;;;9.00;67.50;;;;;;5048484;28;20472;-74
2021/05/06 00:40:54;;;;;;;2.65;0.98;;;8.90;68.40;;;;;;5051010;28;20126;-73
2021/05/06 00:57:10;;;;;;;7.75;1.45;;;8.60;71.40;;;;;;5040950;28;20041;-72
2021/05/06 00:59:54;;;;;;;2.80;1.60;;;8.50;72.00;;;;;;5051368;28;20462;-74
2021/05/06 01:04:56;;;;;;;5.00;1.70;;;8.50;73.10;;;;;;5044956;28;20480;-74
2021/05/06 01:12:18;;;;;;;3.33;1.40;;;8.60;73.50;;;;;;5048614;28;20048;-74
2021/05/06 01:14:44;;;;;;;4.50;1.60;;;8.50;73.50;;;;;;5049762;28;20475;-74
2021/05/06 01:17:10;;;;;;;3.33;1.67;;;8.80;72.60;;;;;;5048063;28;20052;-74
2021/05/06 01:19:37;;;;;;;4.93;1.60;;;8.60;72.50;;;;;;5046694;28;20053;-74
2021/05/06 01:22:04;;;;;;;2.28;1.42;;;8.50;73.80;;;;;;5051180;28;20110;-73
2021/05/06 01:24:32;;;;;;;2.72;1.58;;;8.50;73.80;;;;;;5047087;28;20574;-73
2021/05/06 01:29:35;;;;;;;3.38;1.58;;;8.40;75.00;;;;;;5050352;28;20052;-73
2021/05/06 01:32:26;;;;;;;4.38;1.60;;;8.70;74.70;;;;;;5049770;28;20498;-73
2021/05/06 01:34:59;;;;;;;;;;;8.70;74.40;;;;;;5059695;28;20042;-73
2021/05/06 01:42:25;;;;;;;3.92;1.90;;;8.40;77.20;;;;;;5046201;28;20701;-73
2021/05/06 01:58:03;;;;;;;4.15;1.75;;;8.10;82.00;;;;;;5043869;28;20374;-74
2021/05/06 02:00:38;;;;;;;4.22;2.10;;;8.10;82.80;;;;;;5049089;28;20047;-73
2021/05/06 02:03:04;;;;;;;4.13;1.88;;;8.10;83.00;;;;;;5049100;28;20076;-73
2021/05/06 02:05:30;;;;;;;6.13;2.03;;;8.20;82.90;;;;;;5046877;28;20041;-73
2021/05/06 02:08:01;;;;;;;6.68;2.47;;;8.20;83.00;;;;;;5048033;28;20049;-76
2021/05/06 02:10:28;;;;;;;12.70;2.97;;;8.00;84.30;;;;;;5045936;28;20041;-72
2021/05/06 02:12:55;;;;;;;9.80;2.97;;;8.00;84.60;;;;;;5042471;28;20091;-74
2021/05/06 02:15:28;;;;;;;7.18;2.33;;;8.00;84.60;;;;;;5051167;28;20103;-75
2021/05/06 02:17:56;;;;;;;5.93;2.40;;;8.10;84.00;;;;;;5049453;28;20087;-74
2021/05/06 02:20:23;;;;;;;8.05;2.60;;;8.00;84.70;;;;;;5043294;28;20056;-73
2021/05/06 02:22:50;;;;;;;3.75;2.03;;;7.90;85.80;;;;;;5039046;28;20112;-73
2021/05/06 02:25:17;;;;;;;3.70;1.80;;;7.90;86.10;;;;;;5041678;28;20041;-72
2021/05/06 02:27:44;;;;;;;4.60;1.70;;;7.80;86.30;;;;;;5043192;28;20803;-73
2021/05/06 02:30:11;;;;;;;5.82;2.10;;;7.80;87.00;;;;;;5048123;28;20103;-73
2021/05/06 02:32:40;;;;;;;2.25;1.55;;;8.10;85.90;;;;;;5047755;28;20107;-72
2021/05/06 02:35:09;;;;;;;4.97;2.70;;;7.90;86.60;;;;;;5046460;28;20099;-75
2021/05/06 02:37:36;;;;;;;5.65;2.58;;;8.00;88.10;;;;;;5048293;28;20057;-71
2021/05/06 02:40:05;;;;;;;5.45;2.70;;;7.90;87.80;;;;;;5041452;28;20453;-74
2021/05/06 02:42:31;;;;;;;7.32;2.83;;;7.90;88.00;;;;;;5046556;28;20507;-74
2021/05/06 02:44:57;;;;;;;5.75;2.80;;;7.90;88.60;;;;;;5048899;28;20075;-74
2021/05/06 02:47:24;;;;;;;5.68;2.90;;;7.90;88.20;;;;;;5049206;28;20056;-75
2021/05/06 02:49:52;;;;;;;7.03;2.65;;;7.90;88.20;;;;;;5041972;28;20052;-74
2021/05/06 02:54:55;;;;;;;6.57;3.30;;;8.10;87.50;;;;;;5044161;28;20445;-75
2021/05/06 02:57:47;;;;;;;8.35;3.30;;;8.20;87.00;;;;;;5045847;28;20064;-74
2021/05/06 03:02:58;;;;;;;13.32;4.03;;;8.20;87.10;;;;;;5058474;28;20048;-74
2021/05/06 03:05:28;;;;;;;11.05;3.25;;;8.10;87.90;;;;;;5048005;28;20049;-74
2021/05/06 03:23:23;;;;;;;7.03;2.75;;;8.40;87.50;;;;;;5045611;28;20138;-75
2021/05/06 03:25:50;;;;;;;5.82;3.22;;;8.00;89.10;;;;;;5037084;28;20550;-74
2021/05/06 03:28:26;;;;;;;7.20;2.90;;;7.90;90.50;;;;;;5044475;28;20049;-74
2021/05/06 04:03:29;;;;;;;4.88;1.90;;;8.20;87.80;;;;;;5051323;28;20072;-75
2021/05/06 04:17:09;;;;;;;4.28;1.65;;;8.30;85.30;;;;;;5020356;28;20151;-75
2021/05/06 04:31:03;;;;;;;5.47;1.58;;;8.50;81.90;;;;;;5043779;28;20148;-73
2021/05/06 04:35:41;;;;;;;5.78;1.80;;;8.60;80.50;;;;;;5047930;28;20378;-73
2021/05/06 04:38:10;;;;;;;7.45;1.40;;;8.70;79.40;;;;;;5048985;28;20081;-73
2021/05/06 04:59:28;;;;;;;8.52;1.75;;;8.50;77.40;;;;;;5050017;28;20053;-74
2021/05/06 05:04:41;;;;;;;5.68;1.80;;;8.50;76.60;;;;;;5041583;28;20475;-74
2021/05/06 05:12:31;;;;;;;5.53;1.63;;;8.10;82.50;;;;;;5045771;28;20122;-75
2021/05/06 05:17:45;;;;;;;8.63;1.67;;;8.20;83.80;;;;;;5048935;28;20073;-76
2021/05/06 05:27:58;;;;;;;7.18;1.73;;;8.50;77.70;;;;;;5047889;28;20073;-73
2021/05/06 05:30:26;;;;;;;6.80;1.60;;;8.60;79.20;;;;;;5049261;28;20053;-74
2021/05/06 05:33:08;;;;;;;6.47;1.42;;;8.70;79.10;;;;;;5048413;28;20072;-74
2021/05/06 05:40:51;;;;;;;4.70;2.03;;;8.50;85.40;;;;;;5048306;28;20098;-74
2021/05/06 05:56:37;;;;;;;4.35;1.67;;;7.80;95.90;;;;;;5039169;28;20057;-74
2021/05/06 05:59:03;;;;;;;5.88;1.95;;;7.80;98.60;;;;;;5048404;28;20044;-75
2021/05/06 06:01:30;;;;;;;4.72;2.15;;;7.90;99.90;;;;;;5046715;28;20053;-74
2021/05/06 06:03:56;;;;;;;5.55;2.28;;;7.90;99.90;;;;;;5048679;28;20091;-75
2021/05/06 06:06:22;;;;;;;10.35;2.20;;;8.00;99.90;;;;;;5044852;28;20455;-75
2021/05/06 06:08:49;;;;;;;10.07;2.17;;;7.90;99.90;;;;;;5044689;28;20135;-73
2021/05/06 06:11:16;;;;;;;3.47;2.08;;;8.00;99.90;;;;;;5051457;28;20468;-74
2021/05/06 06:13:46;;;;;;;7.13;2.58;;;8.10;99.90;;;;;;5046151;28;20580;-75
2021/05/06 06:16:19;;;;;;;5.28;2.53;;;8.20;99.90;;;;;;5046667;28;20056;-74
2021/05/06 06:18:49;;;;;;;9.65;2.85;;;8.20;99.90;;;;;;5032983;28;20060;-72
2021/05/06 06:21:20;;;;;;;8.70;3.28;;;8.00;99.90;;;;;;5048421;28;20412;-74
2021/05/06 06:23:46;;;;;;;;;;;8.30;99.90;;;;;;5047238;28;20053;-74
2021/05/06 06:26:12;;;;;;;6.65;2.63;;;8.40;99.90;;;;;;5045493;28;20016;-74
2021/05/06 06:28:41;;;;;;;7.70;3.03;;;8.50;99.90;;;;;;5049939;28;20045;-75
2021/05/06 06:31:28;;;;;;;6.82;2.67;;;8.40;99.90;;;;;;5048170;28;20056;-74
2021/05/06 06:33:55;;;;;;;9.00;2.40;;;8.20;99.90;;;;;;5047167;28;20415;-77
2021/05/06 06:36:23;;;;;;;9.63;2.97;;;8.10;99.90;;;;;;5048255;28;20415;-74
2021/05/06 06:38:50;;;;;;;8.77;3.20;;;8.10;99.90;;;;;;5046845;28;20148;-75
2021/05/06 06:41:17;;;;;;;6.88;2.83;;;8.00;99.90;;;;;;5042911;28;20473;-74
2021/05/06 06:43:49;;;;;;;7.85;2.55;;;7.90;99.90;;;;;;5040964;28;20102;-75
2021/05/06 06:46:17;;;;;;;6.25;2.72;;;7.90;99.90;;;;;;5048073;28;20075;-73
2021/05/06 06:48:44;;;;;;;8.15;2.70;;;8.00;99.90;;;;;;5046898;28;20036;-75
2021/05/06 06:51:15;;;;;;;8.50;2.10;;;7.90;99.90;;;;;;5044453;28;20369;-75
2021/05/06 06:53:42;;;;;;;7.13;2.13;;;7.70;99.90;;;;;;5044949;28;20051;-73
2021/05/06 06:56:08;;;;;;;6.07;1.95;;;7.70;99.90;;;;;;5045137;28;20068;-74
2021/05/06 06:58:35;;;;;;;3.35;1.90;;;7.70;99.90;;;;;;5046896;28;20048;-74
2021/05/06 07:01:01;;;;;;;8.40;2.10;;;7.60;99.90;;;;;;5042148;28;20057;-75
2021/05/06 07:03:27;;;;;;;5.45;1.90;;;7.70;99.90;;;;;;5040960;28;20385;-74
2021/05/06 07:05:54;;;;;;;3.33;1.83;;;7.90;99.90;;;;;;5049475;28;20072;-75
2021/05/06 07:08:33;;;;;;;4.43;1.77;;;7.80;99.90;;;;;;5046598;28;20118;-75
2021/05/06 07:11:01;;;;;;;5.20;2.25;;;7.80;99.90;;;;;;5041284;28;20053;-73
2021/05/06 07:13:28;;;;;;;6.70;2.15;;;7.70;99.90;;;;;;5046027;28;20045;-74
2021/05/06 07:15:58;;;;;;;3.65;2.10;;;7.70;99.90;;;;;;5047379;28;20139;-73
2021/05/06 07:18:25;;;;;;;8.23;2.55;;;7.60;99.90;;;;;;5047887;28;20122;-73
2021/05/06 07:20:52;;;;;;;4.03;1.95;;;7.70;99.90;;;;;;5052051;28;20053;-74
2021/05/06 07:23:21;;;;;;;7.55;2.30;;;7.70;99.90;;;;;;5048049;28;20441;-74
2021/05/06 07:25:54;;;;;;;5.78;1.95;;;7.70;99.90;;;;;;5045335;28;20052;-74
2021/05/06 07:28:35;;;;;;;3.17;2.00;;;7.60;99.90;;;;;;5052041;28;20119;-74
2021/05/06 07:31:07;;;;;;;3.95;2.10;;;7.60;99.90;;;;;;5050284;28;20135;-73
2021/05/06 07:33:36;;;;;;;7.13;1.80;;;7.80;99.90;;;;;;5048284;28;20160;-74
2021/05/06 07:36:08;;;;;;;6.85;1.70;;;7.80;99.90;;;;;;5052269;28;20140;-73
2021/05/06 07:38:37;;;;;;;3.30;1.75;;;8.00;99.90;;;;;;5047006;28;20061;-74
2021/05/06 07:41:07;;;;;;;7.40;1.95;;;8.10;99.90;;;;;;5045578;28;20072;-74
2021/05/06 07:43:36;;;;;;;5.53;2.08;;;8.10;99.90;;;;;;5043539;28;20102;-76
2021/05/06 07:46:06;;;;;;;8.07;1.98;;;8.30;99.90;;;;;;5035985;28;20130;-74
2021/05/06 07:48:37;;;;;;;5.93;2.15;;;8.40;99.90;;;;;;5035579;28;20068;-73
2021/05/06 07:51:06;;;;;;;8.77;2.00;;;8.30;99.90;;;;;;5033512;28;20167;-74
2021/05/06 07:53:50;;;;;;;;;;;8.30;99.90;;;;;;5033885;28;20085;-74
2021/05/06 07:56:20;;;;;;;9.18;2.75;;;8.30;99.90;;;;;;5033672;28;20059;-75
2021/05/06 07:58:47;;;;;;;8.65;3.58;;;8.50;99.90;;;;;;5033059;28;20530;-74
2021/05/06 08:01:13;;;;;;;12.73;4.47;;;8.40;99.90;;;;;;5032990;28;20174;-75
2021/05/06 08:03:40;;;;;;;12.20;5.35;;;8.60;99.90;;;;;;5033804;28;21112;-74
2021/05/06 08:06:07;;;;;;;12.60;5.90;;;8.70;99.90;;;;;;5036521;28;20053;-73
2021/05/06 08:08:33;;;;;;;9.77;4.80;;;8.90;99.90;;;;;;5031928;28;20103;-75
2021/05/06 08:11:00;;;;;;;12.45;5.35;;;9.10;99.90;;;;;;5033410;28;20049;-75
2021/05/06 08:13:28;;;;;;;10.55;4.57;;;9.20;99.90;;;;;;5033179;28;20072;-74
2021/05/06 08:15:56;;;;;;;7.25;3.58;;;9.20;99.90;;;;;;5033600;28;20081;-73
2021/05/06 08:18:23;;;;;;;8.15;2.88;;;9.10;99.90;;;;;;5033158;28;20172;-75
2021/05/06 08:20:49;;;;;;;7.63;2.90;;;9.40;99.90;;;;;;5033765;28;20131;-75
2021/05/06 08:23:20;;;;;;;;;;;9.40;99.40;;;;;;5032822;28;20053;-74
2021/05/06 08:25:47;;;;;;;5.90;2.05;;;9.30;99.20;;;;;;5032500;28;20302;-74
2021/05/06 08:28:14;;;;;;;10.00;2.50;;;9.10;97.70;;;;;;5031960;28;20103;-76
2021/05/06 08:30:41;;;;;;;8.13;2.47;;;9.30;98.60;;;;;;5032939;28;20152;-75
2021/05/06 08:33:08;;;;;;;4.68;2.00;;;9.20;97.70;;;;;;5033154;28;20489;-75
2021/05/06 08:35:34;;;;;;;7.55;2.05;;;9.20;97.10;;;;;;5032950;28;20061;-75
2021/05/06 08:38:02;;;;;;;2.95;1.80;;;9.10;96.80;;;;;;5035858;28;20055;-76
2021/05/06 08:40:29;;;;;;;3.05;1.80;;;9.20;97.00;;;;;;5032169;28;20145;-75
2021/05/06 08:42:55;;;;;;;4.28;2.00;;;9.30;96.00;;;;;;5032713;28;20056;-75
2021/05/06 08:45:26;;;;;;;6.18;2.30;;;9.40;95.70;;;;;;5034427;28;20397;-76
2021/05/06 08:47:53;;;;;;;4.78;1.98;;;9.30;94.90;;;;;;5033171;28;20139;-75
2021/05/06 08:50:22;;;;;;;4.72;1.92;;;9.40;95.70;;;;;;5036410;28;20068;-76
2021/05/06 08:52:50;;;;;;;6.03;1.83;;;9.50;95.70;;;;;;5038022;28;20052;-82
2021/05/06 08:55:17;;;;;;;8.52;2.47;;;9.40;95.60;;;;;;5034171;28;20061;-81
2021/05/06 08:57:44;;;;;;;6.32;2.28;;;9.00;97.40;;;;;;5035005;28;20576;-77
2021/05/06 09:00:11;;;;;;;4.72;1.98;;;9.30;97.80;;;;;;5035713;28;20097;-77
2021/05/06 09:02:48;;;;;;;4.15;2.28;;;8.80;96.70;;;;;;5041156;28;20049;-84
2021/05/06 09:05:15;;;;;;;4.82;2.15;;;9.00;97.10;;;;;;5038446;28;20049;-79
2021/05/06 09:07:43;;;;;;;4.60;2.33;;;8.80;97.40;;;;;;5036555;28;20404;-81
2021/05/06 09:10:31;;;;;;;7.88;2.83;;;9.20;97.60;;;;;;5034952;28;20135;-81
2021/05/06 09:12:57;;;;;;;6.38;2.72;;;9.50;96.90;;;;;;5037885;28;20102;-75
2021/05/06 09:15:23;;;;;;;9.35;2.92;;;9.50;96.60;;;;;;5034728;28;20080;-80
2021/05/06 09:17:53;;;;;;;5.60;2.45;;;9.30;96.80;;;;;;5037111;28;20168;-79
2021/05/06 09:20:25;;;;;;;10.27;2.22;;;9.70;96.60;;;;;;5041374;28;20144;-78
2021/05/06 09:22:54;;;;;;;3.83;2.30;;;9.60;96.30;;;;;;5040261;28;20053;-79
2021/05/06 09:25:36;;;;;;;11.18;2.92;;;9.60;96.10;;;;;;5039800;28;20060;-78
2021/05/06 09:28:07;;;;;;;4.50;2.05;;;9.50;95.70;;;;;;5038515;28;20055;-80
2021/05/06 09:31:04;;;;;;;5.85;2.05;;;9.50;95.00;;;;;;5036339;28;20492;-79
2021/05/06 09:33:36;;;;;;;6.47;2.97;;;9.50;95.30;;;;;;5034633;28;20078;-79
2021/05/06 09:36:17;;;;;;;7.70;2.92;;;9.40;96.60;;;;;;5039168;28;20063;-80
2021/05/06 09:38:48;;;;;;;11.18;2.75;;;9.40;96.20;;;;;;5037912;28;20060;-80
2021/05/06 09:41:24;;;;;;;5.95;2.95;;;9.50;97.20;;;;;;5035343;28;20451;-80
2021/05/06 09:43:51;;;;;;;8.30;3.08;;;9.90;96.40;;;;;;5039102;28;20082;-80
2021/05/06 09:46:43;;;;;;;8.35;3.70;;;10.20;95.10;;;;;;5036826;28;20045;-79
2021/05/06 09:49:13;;;;;;;5.60;2.80;;;10.50;94.20;;;;;;5038502;28;20055;-79
2021/05/06 09:51:48;;;;;;;6.13;2.90;;;10.40;94.60;;;;;;5038472;28;20408;-79
2021/05/06 09:54:20;;;;;;;7.60;2.97;;;10.50;94.80;;;;;;5037891;28;20115;-79
2021/05/06 09:56:58;;;;;;;8.27;3.13;;;10.30;95.00;;;;;;5038856;28;20059;-79
2021/05/06 09:59:26;;;;;;;7.68;2.95;;;10.60;95.00;;;;;;5039830;28;20063;-79
2021/05/06 10:01:53;;;;;;;9.00;2.92;;;10.90;94.40;;;;;;5037690;28;20064;-79
2021/05/06 10:04:22;;;;;;;6.43;3.05;;;11.10;94.00;;;;;;5038290;28;20052;-79
2021/05/06 10:07:14;;;;;;;9.18;3.55;;;11.10;92.20;;;;;;5038472;28;20087;-78
2021/05/06 10:09:53;;;;;;;4.32;2.88;;;11.30;92.70;;;;;;5038672;28;20057;-79
2021/05/06 10:12:33;;;;;;;5.80;3.15;;;10.90;92.00;;;;;;5036713;28;20115;-76
2021/05/06 10:15:00;;;;;;;6.30;3.20;;;10.60;92.90;;;;;;5035172;28;21270;-77
2021/05/06 10:17:29;;;;;;;6.63;3.33;;;10.90;92.60;;;;;;5035967;28;20206;-77
2021/05/06 10:19:58;;;;;;;5.43;2.70;;;11.80;92.20;;;;;;5034242;28;20045;-77
2021/05/06 10:22:29;;;;;;;5.25;2.67;;;12.10;89.50;;;;;;5054225;28;20195;-77
2021/05/06 10:25:00;;;;;;;4.00;2.53;;;12.20;85.50;;;;;;5033250;28;20059;-78
2021/05/06 10:27:28;;;;;;;6.38;2.60;;;12.00;85.10;;;;;;5052226;28;20129;-78
2021/05/06 10:29:58;;;;;;;5.88;2.63;;;11.50;83.80;;;;;;5036808;28;20531;-76
2021/05/06 10:32:27;;;;;;;5.07;2.70;;;11.70;83.60;;;;;;5036653;28;20105;-78
2021/05/06 10:34:55;;;;;;;6.80;2.70;;;12.00;82.40;;;;;;5033642;28;20053;-78
2021/05/06 10:37:31;;;;;;;5.05;2.70;;;12.40;81.20;;;;;;5038665;28;20067;-77
2021/05/06 10:39:58;;;;;;;7.18;3.53;;;12.70;80.40;;;;;;5035491;28;20061;-78
2021/05/06 10:42:32;;;;;;;7.63;3.10;;;12.70;80.40;;;;;;5034189;28;20160;-76
2021/05/06 10:45:21;;;;;;;7.10;3.03;;;12.50;76.10;;;;;;5034113;28;20095;-78
2021/05/06 10:47:54;;;;;;;7.22;3.17;;;12.30;78.20;;;;;;5041374;28;20051;-77
2021/05/06 10:50:27;;;;;;;7.93;3.50;;;12.00;78.80;;;;;;5045120;28;20100;-77
2021/05/06 10:52:55;;;;;;;6.13;3.10;;;12.20;79.40;;;;;;5042999;28;20052;-78
2021/05/06 10:55:50;;;;;;;5.47;2.90;;;12.20;79.40;;;;;;5042445;28;20399;-80
2021/05/06 10:58:27;;;;;;;6.20;2.90;;;12.20;80.20;;;;;;5045582;28;20075;-79
2021/05/06 11:01:03;;;;;;;4.50;2.80;;;12.20;79.50;;;;;;5043486;28;20045;-80
2021/05/06 11:03:32;;;;;;;8.45;3.55;;;12.20;79.20;;;;;;5043400;28;20130;-80
2021/05/06 11:06:00;;;;;;;7.47;3.38;;;12.30;80.70;;;;;;5044377;28;20056;-80
2021/05/06 11:08:29;;;;;;;5.68;3.20;;;12.30;80.00;;;;;;5045807;28;20056;-80
2021/05/06 11:11:02;;;;;;;4.25;2.60;;;12.10;80.90;;;;;;5044224;28;20049;-80
2021/05/06 11:14:05;;;;;;;6.97;4.00;;;11.60;81.90;;;;;;5046397;28;20057;-80
2021/05/06 11:16:34;;;;;;;6.65;3.50;;;11.30;84.30;;;;;;5045561;28;20049;-80
2021/05/06 11:19:01;;;;;;;6.32;3.50;;;11.20;84.80;;;;;;5044229;28;20056;-81
2021/05/06 11:21:33;;;;;;;8.00;3.47;;;11.20;87.10;;;;;;5044989;28;20060;-80
2021/05/06 11:24:25;;;;;;;7.00;2.92;;;11.30;87.10;;;;;;5044158;28;20069;-80
2021/05/06 11:29:52;;;;;;;8.10;2.70;;;11.50;84.10;;;;;;5035307;28;20088;-80
2021/05/06 11:32:34;;;;;;;10.23;3.20;;;11.50;82.60;;;;;;5045596;28;20127;-80
2021/05/06 11:35:03;;;;;;;9.00;2.88;;;11.10;83.70;;;;;;5043698;28;20053;-78
2021/05/06 11:37:32;;;;;;;8.02;2.88;;;11.20;84.30;;;;;;5041635;28;20063;-81
2021/05/06 11:40:08;;;;;;;8.25;2.92;;;11.10;85.40;;;;;;5043292;28;20135;-79
2021/05/06 11:42:40;;;;;;;8.70;2.70;;;11.10;88.30;;;;;;5043661;28;20107;-82
2021/05/06 11:45:19;;;;;;;6.80;2.58;;;11.00;87.10;;;;;;5059810;28;20732;-81
2021/05/06 11:47:47;;;;;;;8.07;2.72;;;11.00;87.80;;;;;;5043261;28;20075;-81
2021/05/06 11:50:38;;;;;;;6.90;3.17;;;11.10;87.50;;;;;;5031796;28;20052;-80
2021/05/06 11:53:56;;;;;;;;;;;;;;;;;;;;;
2021/05/06 11:56:48;;;;;;;6.10;2.92;;;11.40;87.20;;;;;;5046391;28;20084;-80
2021/05/06 11:59:28;;;;;;;5.25;2.67;;;11.10;87.60;;;;;;5044961;28;20037;-79
2021/05/06 12:01:59;;;;;;;11.20;3.13;;;11.30;86.80;;;;;;5066087;28;20069;-77
2021/05/06 12:04:37;;;;;;;8.70;2.97;;;11.40;86.00;;;;;;5044764;28;20041;-78
2021/05/06 12:07:20;;;;;;;6.82;3.03;;;11.40;86.60;;;;;;5044520;28;20045;-78
2021/05/06 12:09:47;;;;;;;4.57;2.67;;;11.30;85.80;;;;;;5045927;28;20126;-78
2021/05/06 12:12:22;;;;;;;4.40;2.30;;;11.20;86.80;;;;;;5046469;28;20065;-79
2021/05/06 12:14:56;;;;;;;6.43;2.90;;;11.00;87.60;;;;;;5045968;28;20057;-79
2021/05/06 12:17:23;;;;;;;8.27;2.80;;;11.10;90.30;;;;;;5048377;28;20146;-78
2021/05/06 12:19:50;;;;;;;8.63;3.03;;;11.10;90.70;;;;;;5047415;28;20060;-79
2021/05/06 12:22:17;;;;;;;7.85;2.97;;;10.70;92.60;;;;;;5030881;28;20048;-83
2021/05/06 12:24:48;;;;;;;8.20;3.30;;;10.50;94.20;;;;;;5047298;28;20045;-81
2021/05/06 12:27:27;;;;;;;8.90;3.33;;;10.70;96.20;;;;;;5044966;28;20052;-83
2021/05/06 12:30:02;;;;;;;14.00;4.35;;;10.50;97.60;;;;;;5046147;28;20025;-81
2021/05/06 12:32:30;;;;;;;7.15;3.50;;;10.50;99.10;;;;;;5048926;28;20083;-85
2021/05/06 12:35:00;;;;;;;15.55;4.15;;;10.50;99.90;;;;;;5045265;28;20099;-82
2021/05/06 12:37:29;;;;;;;7.55;3.00;;;10.40;99.90;;;;;;5046597;28;20052;-84
2021/05/06 12:39:56;;;;;;;7.70;3.30;;;10.40;99.90;;;;;;5048062;28;20049;-85
2021/05/06 12:42:36;;;;;;;11.32;3.75;;;10.60;99.90;;;;;;5048173;28;20091;-77
2021/05/06 12:45:04;;;;;;;;;;;10.60;99.90;;;;;;5052439;28;20037;-82
2021/05/06 12:47:33;;;;;;;11.20;4.03;;;10.50;99.90;;;;;;5046885;28;19928;-80
2021/05/06 12:50:25;;;;;;;8.68;3.95;;;10.50;99.90;;;;;;5053048;28;20045;-81
2021/05/06 12:52:57;;;;;;;10.15;4.40;;;10.40;99.90;;;;;;5052897;28;20079;-81
2021/05/06 12:55:29;;;;;;;10.45;4.38;;;10.30;99.90;;;;;;5046699;28;20057;-80
2021/05/06 12:58:13;;;;;;;10.45;4.28;;;10.10;99.90;;;;;;5044540;28;20049;-79
2021/05/06 13:01:03;;;;;;;7.93;3.95;;;10.10;99.90;;;;;;5045747;28;20531;-80
2021/05/06 13:03:39;;;;;;;8.80;4.03;;;10.00;99.90;;;;;;5045464;28;20074;-81
2021/05/06 13:06:15;;;;;;;9.55;4.38;;;10.20;99.90;;;;;;5043604;28;20048;-81
2021/05/06 13:08:47;;;;;;;9.40;4.13;;;10.40;99.90;;;;;;5049304;28;20045;-81
2021/05/06 13:11:15;;;;;;;11.18;4.40;;;10.30;99.90;;;;;;5046463;28;20487;-80
2021/05/06 13:13:44;;;;;;;8.57;3.55;;;10.40;99.90;;;;;;5044657;28;20052;-80
2021/05/06 13:16:13;;;;;;;11.50;3.53;;;10.40;99.90;;;;;;5041765;28;20056;-83
2021/05/06 13:18:40;;;;;;;12.07;4.35;;;10.40;99.90;;;;;;5047829;28;21659;-84
2021/05/06 13:21:23;;;;;;;8.77;3.97;;;10.40;99.90;;;;;;5053413;28;20041;-80
2021/05/06 13:23:53;;;;;;;8.00;4.10;;;10.40;99.90;;;;;;5048681;28;20114;-83
2021/05/06 13:26:30;;;;;;;8.05;3.80;;;10.20;99.90;;;;;;5050034;28;20053;-84
2021/05/06 13:29:12;;;;;;;10.80;5.00;;;10.20;99.90;;;;;;5051299;28;20044;-86
2021/05/06 13:31:38;;;;;;;;;;;10.30;99.90;;;;;;5043631;28;20037;-86
2021/05/06 13:34:18;;;;;;;10.27;4.32;;;10.40;99.90;;;;;;5046383;28;19928;-85
2021/05/06 13:36:46;;;;;;;5.53;2.70;;;10.20;99.90;;;;;;5049810;28;20191;-85
2021/05/06 13:39:14;;;;;;;8.45;3.95;;;9.50;99.90;;;;;;5047848;28;20060;-85
2021/05/06 13:41:44;;;;;;;11.00;4.20;;;9.60;99.90;;;;;;5052767;28;20071;-85
2021/05/06 13:44:18;;;;;;;;;;;9.90;99.90;;;;;;5053147;28;20098;-85
2021/05/06 13:46:53;;;;;;;8.60;3.03;;;9.90;99.90;;;;;;5048337;28;19928;-85
2021/05/06 13:49:31;;;;;;;5.53;2.88;;;9.90;99.90;;;;;;5050054;28;20042;-86
2021/05/06 13:51:59;;;;;;;5.03;2.53;;;9.80;99.90;;;;;;5051770;28;20400;-84
2021/05/06 13:54:27;;;;;;;4.20;1.58;;;9.90;99.90;;;;;;5052541;28;20079;-83
2021/05/06 13:56:55;;;;;;;2.03;1.40;;;9.80;99.90;;;;;;5053652;28;20480;-86
2021/05/06 13:59:21;;;;;;;7.03;1.30;;;9.90;99.90;;;;;;5052695;28;20048;-85
2021/05/06 14:01:56;;;;;;;3.97;1.60;;;9.90;99.90;;;;;;5062036;28;20053;-86
2021/05/06 14:04:24;;;;;;;2.25;1.55;;;9.90;99.90;;;;;;5053637;28;20045;-86
2021/05/06 14:06:51;;;;;;;7.93;1.98;;;9.80;99.90;;;;;;5051034;28;20057;-85
2021/05/06 14:09:19;;;;;;;2.33;1.48;;;9.80;99.90;;;;;;5055929;28;20480;-83
2021/05/06 14:11:47;;;;;;;3.20;1.80;;;9.80;99.90;;;;;;5052634;28;20049;-83
2021/05/06 14:14:16;;;;;;;5.85;2.03;;;9.70;99.90;;;;;;5043195;28;20060;-75
2021/05/06 14:16:43;;;;;;;3.17;1.90;;;9.60;99.90;;;;;;5041025;28;20391;-75
2021/05/06 14:19:12;;;;;;;2.35;1.60;;;9.70;99.90;;;;;;5046546;28;20044;-69
2021/05/06 14:21:43;;;;;;;2.75;1.65;;;9.80;99.90;;;;;;5044213;28;20052;-72
2021/05/06 14:24:11;;;;;;;2.88;1.75;;;9.50;99.90;;;;;;5044795;28;20045;-75
2021/05/06 14:26:38;;;;;;;3.22;1.90;;;9.70;99.90;;;;;;5044428;28;20119;-74
2021/05/06 14:29:05;;;;;;;3.92;2.20;;;9.70;99.90;;;;;;5046046;28;20061;-72
2021/05/06 14:31:32;;;;;;;2.88;2.08;;;9.90;99.90;;;;;;5043571;28;20380;-74
2021/05/06 14:34:01;;;;;;;5.38;2.65;;;10.00;99.90;;;;;;5046060;28;20049;-74
2021/05/06 14:36:28;;;;;;;5.70;2.90;;;9.90;99.90;;;;;;5042594;28;20052;-74
2021/05/06 14:38:56;;;;;;;3.97;2.13;;;9.90;99.90;;;;;;5044549;28;20095;-74
2021/05/06 14:41:23;;;;;;;4.10;2.70;;;9.90;99.90;;;;;;5044805;28;20483;-74
2021/05/06 14:43:49;;;;;;;4.53;2.65;;;10.00;99.90;;;;;;5042562;28;20049;-71
2021/05/06 14:46:15;;;;;;;5.10;2.38;;;10.00;99.90;;;;;;5044694;28;20098;-72
2021/05/06 14:48:42;;;;;;;5.20;2.58;;;10.00;99.90;;;;;;5028979;28;20464;-72
2021/05/06 14:51:08;;;;;;;4.38;2.55;;;10.00;99.90;;;;;;5036443;28;20136;-71
2021/05/06 14:53:35;;;;;;;5.60;2.47;;;10.10;99.90;;;;;;5033788;28;20132;-70
2021/05/06 14:56:02;;;;;;;4.53;2.70;;;10.10;99.90;;;;;;5034933;28;21302;-70
2021/05/06 14:58:30;;;;;;;9.23;2.92;;;10.10;99.90;;;;;;5034211;28;20471;-71
2021/05/06 15:00:58;;;;;;;6.90;2.83;;;10.00;99.90;;;;;;5033680;28;20126;-71
2021/05/06 15:03:27;;;;;;;7.22;3.08;;;10.30;99.90;;;;;;5029018;28;20069;-71
2021/05/06 15:05:54;;;;;;;6.70;2.67;;;10.90;99.90;;;;;;5029431;28;20140;-72
2021/05/06 15:08:21;;;;;;;5.70;2.55;;;10.90;99.90;;;;;;5028934;28;20084;-71
2021/05/06 15:10:47;;;;;;;3.33;2.25;;;10.70;99.90;;;;;;5030775;28;20427;-69
2021/05/06 15:13:14;;;;;;;3.67;2.30;;;10.80;99.90;;;;;;5039343;28;20068;-70
2021/05/06 15:15:40;;;;;;;2.78;1.90;;;10.80;99.90;;;;;;5043122;28;20053;-72
2021/05/06 15:18:06;;;;;;;3.15;1.77;;;10.60;99.90;;;;;;5042133;28;20049;-71
2021/05/06 15:20:33;;;;;;;3.42;1.85;;;10.50;99.90;;;;;;5041396;28;20084;-74
2021/05/06 15:23:02;;;;;;;3.17;1.80;;;10.70;99.90;;;;;;5042845;28;20543;-78
2021/05/06 15:25:29;;;;;;;3.85;1.52;;;10.60;99.90;;;;;;5039585;28;20045;-77
2021/05/06 15:27:55;;;;;;;2.67;1.73;;;10.50;99.90;;;;;;5041065;28;20049;-74
2021/05/06 15:30:22;;;;;;;2.42;1.35;;;10.40;99.90;;;;;;5042233;28;20561;-76
2021/05/06 15:32:49;;;;;;;2.58;1.58;;;10.30;99.90;;;;;;5041240;28;20523;-78
2021/05/06 15:35:20;;;;;;;2.20;1.63;;;10.10;99.90;;;;;;5042834;28;20076;-76
2021/05/06 15:37:52;;;;;;;1.95;1.27;;;10.20;99.90;;;;;;5042027;28;20085;-76
2021/05/06 15:40:19;;;;;;;4.25;1.42;;;10.30;99.90;;;;;;5045679;28;20076;-85
2021/05/06 15:42:46;;;;;;;1.60;1.17;;;10.50;99.90;;;;;;5045283;28;20064;-75
2021/05/06 15:45:13;;;;;;;5.47;2.15;;;10.30;99.90;;;;;;5044942;28;20052;-73
2021/05/06 15:47:40;;;;;;;2.58;1.40;;;10.30;99.90;;;;;;5043741;28;20119;-69
2021/05/06 15:50:09;;;;;;;5.30;1.80;;;9.80;99.90;;;;;;5044145;28;20122;-72
2021/05/06 15:52:36;;;;;;;1.40;1.20;;;9.70;99.90;;;;;;5043524;28;20138;-73
2021/05/06 15:55:05;;;;;;;2.03;1.60;;;9.60;99.90;;;;;;5043528;28;20914;-72
2021/05/06 15:57:34;;;;;;;3.38;2.08;;;9.70;99.90;;;;;;5045838;28;20056;-74
2021/05/06 16:00:08;;;;;;;2.85;1.70;;;9.70;99.90;;;;;;5044881;28;20057;-77
2021/05/06 16:02:35;;;;;;;3.35;1.50;;;9.70;99.90;;;;;;5044108;28;20136;-81
2021/05/06 16:05:06;;;;;;;3.42;1.60;;;9.70;99.90;;;;;;5046579;28;20052;-77
2021/05/06 16:07:33;;;;;;;5.18;2.08;;;9.50;99.90;;;;;;5043683;28;20068;-75
2021/05/06 16:10:00;;;;;;;2.13;1.30;;;9.60;99.90;;;;;;5046498;28;20052;-79
2021/05/06 16:12:27;;;;;;;4.65;1.95;;;9.60;99.90;;;;;;5043269;28;20056;-74
2021/05/06 16:14:53;;;;;;;3.45;2.00;;;9.70;99.90;;;;;;5044931;28;20059;-74
2021/05/06 16:17:19;;;;;;;2.53;1.75;;;9.90;99.90;;;;;;5045737;28;20053;-79
2021/05/06 16:19:47;;;;;;;3.25;1.75;;;9.90;99.90;;;;;;5043902;28;20139;-73
2021/05/06 16:22:13;;;;;;;4.38;2.17;;;9.90;99.90;;;;;;5044587;28;20060;-76
2021/05/06 16:24:41;;;;;;;2.05;1.60;;;10.00;99.90;;;;;;5030655;28;20068;-78
2021/05/06 16:27:17;;;;;;;2.95;1.92;;;10.00;99.90;;;;;;5046427;28;20056;-77
2021/05/06 16:29:44;;;;;;;4.00;1.90;;;10.00;99.90;;;;;;5044441;28;20403;-74
2021/05/06 16:32:11;;;;;;;5.40;2.33;;;10.00;99.90;;;;;;5029967;28;20543;-74
2021/05/06 16:34:40;;;;;;;3.20;1.90;;;9.90;99.90;;;;;;5032107;28;20061;-73
2021/05/06 16:37:28;;;;;;;6.32;1.90;;;9.90;99.90;;;;;;5034170;28;20911;-75
2021/05/06 16:44:53;;;;;;;4.15;2.10;;;10.10;99.90;;;;;;5032831;28;20049;-74
2021/05/06 16:47:20;;;;;;;6.53;2.10;;;10.20;99.90;;;;;;5032017;28;20056;-74
2021/05/06 16:49:47;;;;;;;5.57;2.13;;;9.90;99.90;;;;;;5030932;28;20049;-73